createdAt,value
2023-03-25T00:03:17.745Z,1.83
2023-03-25T00:08:19.778Z,2.00
2023-03-25T00:13:23.467Z,2.13
2023-03-25T00:18:29.231Z,1.90
2023-03-25T00:23:31.955Z,1.70
2023-03-25T00:28:36.505Z,1.95
2023-03-25T00:33:41.581Z,1.65
2023-03-25T00:38:45.477Z,1.85
2023-03-25T00:43:47.653Z,1.83
2023-03-25T00:48:50.677Z,1.42
2023-03-25T00:53:54.860Z,1.70
2023-03-25T00:58:57.842Z,2.05
2023-03-25T01:04:00.471Z,1.42
2023-03-25T01:09:06.336Z,2.30
2023-03-25T01:14:17.428Z,1.90
2023-03-25T01:19:19.645Z,1.85
2023-03-25T01:24:21.856Z,1.60
2023-03-25T01:29:24.230Z,2.55
2023-03-25T01:34:26.291Z,2.58
2023-03-25T01:39:28.516Z,2.20
2023-03-25T01:44:30.957Z,2.10
2023-03-25T01:49:44.330Z,1.83
2023-03-25T01:54:49.910Z,2.28
2023-03-25T01:59:53.987Z,2.00
2023-03-25T02:05:01.249Z,2.40
2023-03-25T02:10:09.043Z,1.80
2023-03-25T02:15:12.227Z,2.20
2023-03-25T02:20:36.333Z,1.90
2023-03-25T02:26:06.189Z,2.42
2023-03-25T02:31:33.102Z,2.47
2023-03-25T02:37:03.399Z,2.50
2023-03-25T02:42:22.098Z,3.15
2023-03-25T02:47:30.408Z,2.83
2023-03-25T02:52:38.108Z,2.70
2023-03-25T02:57:44.111Z,2.92
2023-03-25T03:03:03.811Z,2.80
2023-03-25T03:13:44.336Z,2.90
2023-03-25T03:19:16.788Z,3.15
2023-03-25T03:24:42.092Z,2.53
2023-03-25T03:29:52.730Z,2.85
2023-03-25T03:35:18.867Z,2.67
2023-03-25T03:40:24.650Z,2.72
2023-03-25T03:45:34.627Z,2.90
2023-03-25T03:50:41.886Z,2.83
2023-03-25T03:55:52.769Z,3.30
2023-03-25T04:06:35.431Z,2.53
2023-03-25T04:11:43.557Z,2.20
2023-03-25T04:16:45.774Z,2.47
2023-03-25T04:21:48.052Z,2.10
2023-03-25T04:26:50.162Z,2.20
2023-03-25T04:31:56.230Z,2.53
2023-03-25T04:36:58.819Z,2.90
2023-03-25T04:42:04.076Z,3.00
2023-03-25T04:47:11.852Z,3.00
2023-03-25T04:52:13.863Z,3.03
2023-03-25T04:57:15.892Z,2.90
2023-03-25T05:02:18.419Z,2.80
2023-03-25T05:07:20.405Z,3.38
2023-03-25T05:12:22.910Z,3.80
2023-03-25T05:17:26.252Z,3.70
2023-03-25T05:22:28.326Z,3.83
2023-03-25T05:27:30.325Z,3.55
2023-03-25T05:32:33.419Z,3.58
2023-03-25T05:37:35.749Z,2.78
2023-03-25T05:42:37.806Z,3.70
2023-03-25T05:47:40.185Z,2.92
2023-03-25T05:52:42.867Z,2.60
2023-03-25T05:57:44.900Z,2.90
2023-03-25T06:02:48.900Z,2.80
2023-03-25T06:07:56.002Z,2.38
2023-03-25T06:12:58.049Z,3.65
2023-03-25T06:18:00.634Z,4.00
2023-03-25T06:23:02.810Z,2.72
2023-03-25T06:28:06.089Z,2.05
2023-03-25T06:33:10.662Z,2.70
2023-03-25T06:38:13.850Z,2.38
2023-03-25T06:43:35.074Z,3.17
2023-03-25T06:49:12.059Z,2.75
2023-03-25T06:54:15.264Z,2.53
2023-03-25T06:59:17.470Z,2.75
2023-03-25T07:04:19.794Z,2.88
2023-03-25T07:09:21.965Z,2.70
2023-03-25T07:14:24.206Z,2.97
2023-03-25T07:19:26.541Z,2.92
2023-03-25T07:24:28.775Z,3.35
2023-03-25T07:29:31.163Z,3.20
2023-03-25T07:34:33.373Z,3.08
2023-03-25T07:39:35.839Z,3.38
2023-03-25T07:44:38.214Z,3.40
2023-03-25T07:49:40.980Z,3.58
2023-03-25T07:54:43.146Z,2.97
2023-03-25T07:59:45.631Z,4.00
2023-03-25T08:04:48.568Z,3.47
2023-03-25T08:09:50.747Z,4.32
2023-03-25T08:14:52.867Z,4.03
2023-03-25T08:19:55.334Z,4.38
2023-03-25T08:24:57.822Z,4.18
2023-03-25T08:30:00.834Z,3.55
2023-03-25T08:35:05.856Z,4.43
2023-03-25T08:40:11.053Z,3.72
2023-03-25T08:45:15.505Z,4.18
2023-03-25T08:50:17.895Z,3.85
2023-03-25T08:55:20.357Z,4.75
2023-03-25T09:00:24.886Z,4.43
2023-03-25T09:05:27.284Z,4.88
2023-03-25T09:10:29.597Z,4.28
2023-03-25T09:15:32.408Z,4.70
2023-03-25T09:20:34.717Z,5.35
2023-03-25T09:25:37.816Z,5.10
2023-03-25T09:30:40.198Z,4.30
2023-03-25T09:35:42.460Z,4.15
2023-03-25T09:40:45.470Z,4.32
2023-03-25T09:45:49.918Z,5.60
2023-03-25T09:50:52.116Z,4.50
2023-03-25T09:55:54.336Z,3.90
2023-03-25T10:01:19.946Z,4.60
2023-03-25T10:06:32.352Z,4.30
2023-03-25T10:12:06.134Z,3.72
2023-03-25T10:17:20.806Z,4.22
2023-03-25T10:22:55.420Z,4.00
2023-03-25T10:28:00.845Z,4.22
2023-03-25T10:33:08.634Z,4.20
2023-03-25T10:38:18.538Z,4.32
2023-03-25T10:43:27.723Z,3.72
2023-03-25T10:48:31.523Z,2.75
2023-03-25T10:53:34.160Z,2.80
2023-03-25T10:58:39.519Z,2.25
2023-03-25T11:03:43.492Z,2.38
2023-03-25T11:09:08.468Z,2.30
2023-03-25T11:14:11.406Z,2.35
2023-03-25T11:19:25.415Z,2.22
2023-03-25T11:24:34.063Z,2.20
2023-03-25T11:29:37.205Z,2.45
2023-03-25T11:34:42.445Z,2.45
2023-03-25T11:39:55.257Z,1.85
2023-03-25T11:44:59.563Z,2.50
2023-03-25T11:50:03.726Z,2.42
2023-03-25T11:55:06.440Z,2.95
2023-03-25T12:00:36.509Z,2.40
2023-03-25T12:05:38.924Z,2.50
2023-03-25T12:10:50.521Z,2.50
2023-03-25T12:15:57.443Z,2.90
2023-03-25T12:21:27.263Z,2.22
2023-03-25T12:26:43.092Z,2.60
2023-03-25T12:32:11.288Z,2.55
2023-03-25T12:37:26.872Z,2.40
2023-03-25T12:42:51.258Z,2.00
2023-03-25T12:48:01.651Z,2.10
2023-03-25T12:53:14.337Z,1.90
2023-03-25T12:58:42.030Z,2.40
2023-03-25T13:04:02.366Z,1.60
2023-03-25T13:09:14.185Z,2.10
2023-03-25T13:14:23.220Z,1.73
2023-03-25T13:19:28.822Z,1.90
2023-03-25T13:24:49.653Z,2.53
2023-03-25T13:29:55.935Z,2.00
2023-03-25T13:35:09.298Z,1.42
2023-03-25T13:40:14.851Z,1.80
2023-03-25T13:45:22.858Z,1.75
2023-03-25T13:50:30.470Z,1.90
2023-03-25T13:55:37.659Z,1.90
2023-03-25T14:00:58.411Z,2.53
2023-03-25T14:06:15.555Z,2.28
2023-03-25T14:11:36.364Z,2.42
2023-03-25T14:16:44.332Z,1.90
2023-03-25T14:21:51.722Z,2.10
2023-03-25T14:27:01.626Z,1.70
2023-03-25T14:32:09.207Z,1.63
2023-03-25T14:37:18.289Z,1.75
2023-03-25T14:42:28.570Z,2.00
2023-03-25T14:47:33.900Z,2.10
2023-03-25T14:52:43.275Z,1.98
2023-03-25T14:57:46.785Z,2.13
2023-03-25T15:03:11.885Z,2.17
2023-03-25T15:08:16.730Z,1.90
2023-03-25T15:13:24.532Z,2.13
2023-03-25T15:18:35.623Z,2.47
2023-03-25T15:23:49.568Z,2.35
2023-03-25T15:29:06.564Z,2.50
2023-03-25T15:34:18.889Z,2.45
2023-03-25T15:39:33.423Z,1.70
2023-03-25T15:44:55.580Z,2.00
2023-03-25T15:50:25.662Z,2.00
2023-03-25T15:55:42.526Z,2.45
2023-03-25T16:00:48.608Z,1.90
2023-03-25T16:05:56.975Z,3.28
2023-03-25T16:11:19.293Z,3.15
2023-03-25T16:16:21.468Z,2.53
2023-03-25T16:21:23.532Z,2.30
2023-03-25T16:26:47.934Z,2.58
2023-03-25T16:31:59.010Z,2.35
2023-03-25T16:37:02.524Z,2.35
2023-03-25T16:42:18.854Z,2.67
2023-03-25T16:47:22.097Z,3.47
2023-03-25T16:52:29.747Z,2.60
2023-03-25T16:57:39.162Z,2.40
2023-03-25T17:02:41.783Z,2.50
2023-03-25T17:07:44.276Z,2.70
2023-03-25T17:13:18.358Z,2.97
2023-03-25T17:18:25.642Z,2.88
2023-03-25T17:23:42.595Z,3.15
2023-03-25T17:29:02.839Z,2.78
2023-03-25T17:34:19.235Z,3.00
2023-03-25T17:39:29.978Z,2.60
2023-03-25T17:44:35.934Z,3.10
2023-03-25T17:49:38.138Z,2.75
2023-03-25T17:54:40.576Z,2.33
2023-03-25T17:59:43.765Z,2.88
2023-03-25T18:04:45.997Z,3.65
2023-03-25T18:09:48.942Z,2.70
2023-03-25T18:14:51.139Z,3.63
2023-03-25T18:19:53.213Z,4.30
2023-03-25T18:24:55.477Z,3.33
2023-03-25T18:29:58.296Z,3.05
2023-03-25T18:35:00.561Z,3.75
2023-03-25T18:40:15.350Z,3.50
2023-03-25T18:45:22.505Z,3.53
2023-03-25T18:50:32.452Z,3.30
2023-03-25T18:55:35.749Z,3.70
2023-03-25T19:00:39.857Z,3.78
2023-03-25T19:05:42.440Z,3.85
2023-03-25T19:10:45.473Z,3.30
2023-03-25T19:15:47.568Z,3.22
2023-03-25T19:20:50.106Z,3.60
2023-03-25T19:25:53.298Z,3.70
2023-03-25T19:31:00.472Z,3.42
2023-03-25T19:36:04.325Z,3.97
2023-03-25T19:41:09.676Z,2.22
2023-03-25T19:46:11.862Z,2.30
2023-03-25T19:51:13.876Z,4.30
2023-03-25T19:56:15.887Z,4.50
2023-03-25T20:01:18.093Z,4.25
2023-03-25T20:06:20.169Z,3.58
2023-03-25T20:11:22.229Z,5.88
2023-03-25T20:16:24.406Z,1.58
2023-03-25T20:21:26.585Z,1.73
2023-03-25T20:26:28.744Z,0.77
2023-03-25T20:31:32.860Z,1.27
2023-03-25T20:36:34.946Z,1.50
2023-03-25T20:41:37.034Z,1.65
2023-03-25T20:46:40.368Z,1.55
2023-03-25T20:51:43.372Z,1.63
2023-03-25T20:56:46.719Z,2.33
2023-03-25T21:01:50.830Z,3.10
2023-03-25T21:06:53.261Z,3.47
2023-03-25T21:11:55.332Z,3.28
2023-03-25T21:16:57.922Z,4.20
2023-03-25T21:22:00.454Z,3.58
2023-03-25T21:27:03.122Z,4.53
2023-03-25T21:32:07.586Z,4.50
2023-03-25T21:37:09.924Z,3.97
2023-03-25T21:42:11.985Z,5.00
2023-03-25T21:47:14.381Z,4.75
2023-03-25T21:52:17.770Z,4.80
2023-03-25T21:57:20.627Z,4.90
2023-03-25T22:02:22.799Z,3.78
2023-03-25T22:07:24.946Z,5.40
2023-03-25T22:12:27.270Z,5.03
2023-03-25T22:17:29.367Z,6.00
2023-03-25T22:22:31.492Z,6.38
2023-03-25T22:27:33.907Z,6.55
2023-03-25T22:32:36.015Z,6.32
2023-03-25T22:37:38.256Z,8.90
2023-03-25T22:42:40.417Z,6.60
2023-03-25T22:47:42.706Z,7.50
2023-03-25T22:52:44.866Z,7.28
2023-03-25T22:57:47.057Z,7.03
2023-03-25T23:02:49.126Z,6.95
2023-03-25T23:07:51.187Z,6.60
2023-03-25T23:12:53.429Z,6.75
2023-03-25T23:17:55.606Z,6.65
2023-03-25T23:22:58.134Z,6.82
2023-03-25T23:28:00.226Z,5.53
2023-03-25T23:33:02.495Z,6.47
2023-03-25T23:38:04.715Z,7.68
2023-03-25T23:43:07.047Z,9.15
2023-03-25T23:48:09.448Z,7.18
2023-03-25T23:53:11.497Z,6.70
2023-03-25T23:58:14.571Z,5.53
